Friday, January 18, 2019, 1:23 AM GMT
Back to Local

CWFQ, Frelighsburg

Location: , , Canada Lat: 45.05
Local Time: 1:23 AM GMT ( 1:23 GMT) Lon: -72.833
Time Zone: GMT Elev: 498 ft

Show me the last for .
Show Coded

Time T Td Feel RH Dir Speed Gust Alt SLP Vis Weather Sky Remarks
2019-01-18 01:00 7 -7 -2 51 170° 5 - - 30.29 0 None
2019-01-18 00:00 4 -8 - 55 80° 1 - - 30.30 0 None
2019-01-17 23:00 4 -9 - 53 60° 2 - - 30.31 0 None
2019-01-17 22:00 6 -7 - 55 150° 1 - - 30.31 0 None
2019-01-17 21:00 7 -9 - 47 150° 2 - - 30.33 0 None
2019-01-17 20:00 7 -9 0 46 180° 3 - - 30.35 0 None
2019-01-17 19:00 8 -11 - 40 360° 1 - - 30.36 0 None
2019-01-17 18:00 6 -11 - 44 200° 2 - - 30.39 0 None
2019-01-17 17:00 3 -10 -7 53 140° 5 - - 30.41 0 None
2019-01-17 16:00 1 -12 -7 54 220° 3 - - 30.44 0 None
2019-01-17 15:00 1 -13 - 52 230° 2 - - 30.45 0 None
2019-01-17 14:00 -3 -12 -11 63 210° 3 - - 30.44 0 None
2019-01-17 13:00 -7 -12 - 79 190° 1 - - 30.41 0 None
2019-01-17 12:00 -6 -10 - 79 200° 1 - - 30.40 0 None
2019-01-17 11:00 -5 -10 - 77 290° 1 - - 30.38 0 None
2019-01-17 10:00 -5 -11 - 77 250° 1 - - 30.37 0 None
2019-01-17 09:00 -5 -10 - 78 240° 1 - - 30.34 0 None
2019-01-17 08:00 -4 -10 - 72 240° 1 - - 30.33 0 None
2019-01-17 07:00 -3 -9 - 73 230° 1 - - 30.31 0 None
2019-01-17 06:00 -1 -8 - 70 280° 1 - - 30.28 0 None
2019-01-17 05:00 0 -7 - 70 270° 2 - - 30.27 0 None
2019-01-17 04:00 4 -5 -3 64 300° 3 - - 30.26 0 None
2019-01-17 03:00 4 -4 -5 67 320° 5 - - 30.23 0 None
2019-01-17 02:00 6 -3 -4 64 300° 6 - - 30.20 0 None

Support USWX by starting your Amazon purchase here.